<?xml version="1.0" encoding="UTF-8" standalone="no" ?>
<gpx xmlns="http://www.topografix.com/GPX/1/1" xmlns:xsi="http://www.w3.org/2001/XMLSchema-instance" xsi:schemaLocation="http://www.topografix.com/GPX/1/1 http://www.topografix.com/GPX/1/1/gpx.xsd" version="1.1" creator="VisuGPX - https://www.visugpx.com">
  <metadata>
    <name>les trois randonnées BS MS PS </name>
  </metadata>
  <trk>
    <name><![CDATA[10697055-Bourges-Sancerre_2020]]></name>
    <trkseg>
      <trkpt lat="47.08179" lon="2.3989">
        <ele>159</ele>
        <time>2019-11-14T16:44:43Z</time>
      </trkpt>
      <trkpt lat="47.08179" lon="2.3989">
        <ele>159</ele>
        <time>2019-11-14T16:44:43Z</time>
      </trkpt>
      <trkpt lat="47.08183" lon="2.39843">
        <ele>158</ele>
        <time>2019-11-14T16:45:26Z</time>
      </trkpt>
      <trkpt lat="47.082" lon="2.3982">
        <ele>156</ele>
        <time>2019-11-14T16:45:57Z</time>
      </trkpt>
      <trkpt lat="47.08225" lon="2.3982">
        <ele>156</ele>
        <time>2019-11-14T16:46:30Z</time>
      </trkpt>
      <trkpt lat="47.08241" lon="2.39828">
        <ele>155</ele>
        <time>2019-11-14T16:46:53Z</time>
      </trkpt>
      <trkpt lat="47.08265" lon="2.39846">
        <ele>155</ele>
        <time>2019-11-14T16:47:29Z</time>
      </trkpt>
      <trkpt lat="47.08273" lon="2.39965">
        <ele>150</ele>
        <time>2019-11-14T16:49:17Z</time>
      </trkpt>
      <trkpt lat="47.08269" lon="2.40029">
        <ele>147</ele>
        <time>2019-11-14T16:50:16Z</time>
      </trkpt>
      <trkpt lat="47.0832" lon="2.40001">
        <ele>145</ele>
        <time>2019-11-14T16:51:28Z</time>
      </trkpt>
      <trkpt lat="47.0836" lon="2.39975">
        <ele>143</ele>
        <time>2019-11-14T16:52:27Z</time>
      </trkpt>
      <trkpt lat="47.08395" lon="2.39934">
        <ele>144</ele>
        <time>2019-11-14T16:53:27Z</time>
      </trkpt>
      <trkpt lat="47.08438" lon="2.39918">
        <ele>143</ele>
        <time>2019-11-14T16:54:26Z</time>
      </trkpt>
      <trkpt lat="47.08486" lon="2.39892">
        <ele>141</ele>
        <time>2019-11-14T16:55:34Z</time>
      </trkpt>
      <trkpt lat="47.08515" lon="2.39864">
        <ele>140</ele>
        <time>2019-11-14T16:56:20Z</time>
      </trkpt>
      <trkpt lat="47.08542" lon="2.39845">
        <ele>139</ele>
        <time>2019-11-14T16:57:00Z</time>
      </trkpt>
      <trkpt lat="47.08569" lon="2.39831">
        <ele>137</ele>
        <time>2019-11-14T16:57:39Z</time>
      </trkpt>
      <trkpt lat="47.08641" lon="2.39881">
        <ele>131</ele>
        <time>2019-11-14T16:59:25Z</time>
      </trkpt>
      <trkpt lat="47.08879" lon="2.40037">
        <ele>128</ele>
        <time>2019-11-14T17:05:13Z</time>
      </trkpt>
      <trkpt lat="47.09067" lon="2.40164">
        <ele>127</ele>
        <time>2019-11-14T17:09:49Z</time>
      </trkpt>
      <trkpt lat="47.09132" lon="2.40197">
        <ele>127</ele>
        <time>2019-11-14T17:11:21Z</time>
      </trkpt>
      <trkpt lat="47.09305" lon="2.40298">
        <ele>129</ele>
        <time>2019-11-14T17:15:29Z</time>
      </trkpt>
      <trkpt lat="47.09326" lon="2.40301">
        <ele>129</ele>
        <time>2019-11-14T17:15:57Z</time>
      </trkpt>
      <trkpt lat="47.0934" lon="2.40285">
        <ele>129</ele>
        <time>2019-11-14T17:16:21Z</time>
      </trkpt>
      <trkpt lat="47.09352" lon="2.40151">
        <ele>131</ele>
        <time>2019-11-14T17:18:24Z</time>
      </trkpt>
      <trkpt lat="47.0938" lon="2.40156">
        <ele>132</ele>
        <time>2019-11-14T17:19:01Z</time>
      </trkpt>
      <trkpt lat="47.09377" lon="2.40192">
        <ele>131</ele>
        <time>2019-11-14T17:19:34Z</time>
      </trkpt>
      <trkpt lat="47.09376" lon="2.40265">
        <ele>130</ele>
        <time>2019-11-14T17:20:41Z</time>
      </trkpt>
      <trkpt lat="47.09381" lon="2.40325">
        <ele>130</ele>
        <time>2019-11-14T17:21:35Z</time>
      </trkpt>
      <trkpt lat="47.0938" lon="2.4035">
        <ele>130</ele>
        <time>2019-11-14T17:21:58Z</time>
      </trkpt>
      <trkpt lat="47.09384" lon="2.40379">
        <ele>130</ele>
        <time>2019-11-14T17:22:25Z</time>
      </trkpt>
      <trkpt lat="47.09485" lon="2.40574">
        <ele>138</ele>
        <time>2019-11-14T17:26:08Z</time>
      </trkpt>
      <trkpt lat="47.09559" lon="2.40743">
        <ele>145</ele>
        <time>2019-11-14T17:29:10Z</time>
      </trkpt>
      <trkpt lat="47.09555" lon="2.40769">
        <ele>145</ele>
        <time>2019-11-14T17:29:34Z</time>
      </trkpt>
      <trkpt lat="47.09567" lon="2.40771">
        <ele>145</ele>
        <time>2019-11-14T17:29:51Z</time>
      </trkpt>
      <trkpt lat="47.09573" lon="2.4079">
        <ele>145</ele>
        <time>2019-11-14T17:30:10Z</time>
      </trkpt>
      <trkpt lat="47.09655" lon="2.41099">
        <ele>146</ele>
        <time>2019-11-14T17:35:11Z</time>
      </trkpt>
      <trkpt lat="47.0972" lon="2.41249">
        <ele>146</ele>
        <time>2019-11-14T17:37:52Z</time>
      </trkpt>
      <trkpt lat="47.09826" lon="2.41575">
        <ele>143</ele>
        <time>2019-11-14T17:43:21Z</time>
      </trkpt>
      <trkpt lat="47.09854" lon="2.41632">
        <ele>144</ele>
        <time>2019-11-14T17:44:24Z</time>
      </trkpt>
      <trkpt lat="47.09876" lon="2.41692">
        <ele>145</ele>
        <time>2019-11-14T17:45:26Z</time>
      </trkpt>
      <trkpt lat="47.10004" lon="2.4201">
        <ele>140</ele>
        <time>2019-11-14T17:51:02Z</time>
      </trkpt>
      <trkpt lat="47.1007" lon="2.42236">
        <ele>136</ele>
        <time>2019-11-14T17:54:45Z</time>
      </trkpt>
      <trkpt lat="47.10251" lon="2.42737">
        <ele>132</ele>
        <time>2019-11-14T18:03:21Z</time>
      </trkpt>
      <trkpt lat="47.10286" lon="2.42851">
        <ele>133</ele>
        <time>2019-11-14T18:05:14Z</time>
      </trkpt>
      <trkpt lat="47.1038" lon="2.43224">
        <ele>138</ele>
        <time>2019-11-14T18:11:15Z</time>
      </trkpt>
      <trkpt lat="47.10421" lon="2.43347">
        <ele>139</ele>
        <time>2019-11-14T18:13:20Z</time>
      </trkpt>
      <trkpt lat="47.10578" lon="2.43786">
        <ele>141</ele>
        <time>2019-11-14T18:20:50Z</time>
      </trkpt>
      <trkpt lat="47.10745" lon="2.44231">
        <ele>146</ele>
        <time>2019-11-14T18:28:32Z</time>
      </trkpt>
      <trkpt lat="47.10792" lon="2.44373">
        <ele>145</ele>
        <time>2019-11-14T18:30:55Z</time>
      </trkpt>
      <trkpt lat="47.10837" lon="2.44533">
        <ele>144</ele>
        <time>2019-11-14T18:33:32Z</time>
      </trkpt>
      <trkpt lat="47.10886" lon="2.44744">
        <ele>144</ele>
        <time>2019-11-14T18:36:55Z</time>
      </trkpt>
      <trkpt lat="47.10896" lon="2.44761">
        <ele>144</ele>
        <time>2019-11-14T18:37:15Z</time>
      </trkpt>
      <trkpt lat="47.10952" lon="2.44761">
        <ele>147</ele>
        <time>2019-11-14T18:38:30Z</time>
      </trkpt>
      <trkpt lat="47.10995" lon="2.44749">
        <ele>150</ele>
        <time>2019-11-14T18:39:29Z</time>
      </trkpt>
      <trkpt lat="47.11056" lon="2.4472">
        <ele>151</ele>
        <time>2019-11-14T18:40:54Z</time>
      </trkpt>
      <trkpt lat="47.11458" lon="2.44409">
        <ele>159</ele>
        <time>2019-11-14T18:51:00Z</time>
      </trkpt>
      <trkpt lat="47.11501" lon="2.44372">
        <ele>159</ele>
        <time>2019-11-14T18:52:07Z</time>
      </trkpt>
      <trkpt lat="47.11507" lon="2.44335">
        <ele>159</ele>
        <time>2019-11-14T18:52:41Z</time>
      </trkpt>
      <trkpt lat="47.11518" lon="2.44315">
        <ele>159</ele>
        <time>2019-11-14T18:53:05Z</time>
      </trkpt>
      <trkpt lat="47.1161" lon="2.44451">
        <ele>161</ele>
        <time>2019-11-14T18:55:59Z</time>
      </trkpt>
      <trkpt lat="47.11606" lon="2.44492">
        <ele>160</ele>
        <time>2019-11-14T18:56:37Z</time>
      </trkpt>
      <trkpt lat="47.1162" lon="2.44527">
        <ele>161</ele>
        <time>2019-11-14T18:57:13Z</time>
      </trkpt>
      <trkpt lat="47.11646" lon="2.44516">
        <ele>162</ele>
        <time>2019-11-14T18:57:49Z</time>
      </trkpt>
      <trkpt lat="47.11708" lon="2.44622">
        <ele>162</ele>
        <time>2019-11-14T18:59:56Z</time>
      </trkpt>
      <trkpt lat="47.11731" lon="2.44679">
        <ele>161</ele>
        <time>2019-11-14T19:00:57Z</time>
      </trkpt>
      <trkpt lat="47.11799" lon="2.44817">
        <ele>161</ele>
        <time>2019-11-14T19:03:31Z</time>
      </trkpt>
      <trkpt lat="47.11931" lon="2.45022">
        <ele>158</ele>
        <time>2019-11-14T19:07:48Z</time>
      </trkpt>
      <trkpt lat="47.12159" lon="2.45402">
        <ele>154</ele>
        <time>2019-11-14T19:15:28Z</time>
      </trkpt>
      <trkpt lat="47.12186" lon="2.45433">
        <ele>155</ele>
        <time>2019-11-14T19:16:13Z</time>
      </trkpt>
      <trkpt lat="47.12341" lon="2.4558">
        <ele>156</ele>
        <time>2019-11-14T19:20:20Z</time>
      </trkpt>
      <trkpt lat="47.12502" lon="2.45746">
        <ele>160</ele>
        <time>2019-11-14T19:24:42Z</time>
      </trkpt>
      <trkpt lat="47.12562" lon="2.45834">
        <ele>160</ele>
        <time>2019-11-14T19:26:35Z</time>
      </trkpt>
      <trkpt lat="47.12708" lon="2.46074">
        <ele>154</ele>
        <time>2019-11-14T19:31:27Z</time>
      </trkpt>
      <trkpt lat="47.12797" lon="2.46226">
        <ele>152</ele>
        <time>2019-11-14T19:34:29Z</time>
      </trkpt>
      <trkpt lat="47.12897" lon="2.46434">
        <ele>151</ele>
        <time>2019-11-14T19:38:21Z</time>
      </trkpt>
      <trkpt lat="47.13131" lon="2.46981">
        <ele>151</ele>
        <time>2019-11-14T19:48:07Z</time>
      </trkpt>
      <trkpt lat="47.13146" lon="2.47026">
        <ele>151</ele>
        <time>2019-11-14T19:48:53Z</time>
      </trkpt>
      <trkpt lat="47.13229" lon="2.47335">
        <ele>154</ele>
        <time>2019-11-14T19:53:54Z</time>
      </trkpt>
      <trkpt lat="47.13275" lon="2.47517">
        <ele>152</ele>
        <time>2019-11-14T19:56:51Z</time>
      </trkpt>
      <trkpt lat="47.1331" lon="2.47609">
        <ele>152</ele>
        <time>2019-11-14T19:58:26Z</time>
      </trkpt>
      <trkpt lat="47.13339" lon="2.47652">
        <ele>152</ele>
        <time>2019-11-14T19:59:21Z</time>
      </trkpt>
      <trkpt lat="47.13621" lon="2.48005">
        <ele>143</ele>
        <time>2019-11-14T20:07:36Z</time>
      </trkpt>
      <trkpt lat="47.13843" lon="2.48296">
        <ele>145</ele>
        <time>2019-11-14T20:14:13Z</time>
      </trkpt>
      <trkpt lat="47.13873" lon="2.48319">
        <ele>145</ele>
        <time>2019-11-14T20:14:58Z</time>
      </trkpt>
      <trkpt lat="47.13928" lon="2.48329">
        <ele>146</ele>
        <time>2019-11-14T20:16:12Z</time>
      </trkpt>
      <trkpt lat="47.13986" lon="2.48334">
        <ele>148</ele>
        <time>2019-11-14T20:17:29Z</time>
      </trkpt>
      <trkpt lat="47.14052" lon="2.48363">
        <ele>147</ele>
        <time>2019-11-14T20:19:01Z</time>
      </trkpt>
      <trkpt lat="47.1412" lon="2.48409">
        <ele>145</ele>
        <time>2019-11-14T20:20:41Z</time>
      </trkpt>
      <trkpt lat="47.14195" lon="2.48477">
        <ele>145</ele>
        <time>2019-11-14T20:22:39Z</time>
      </trkpt>
      <trkpt lat="47.14274" lon="2.48536">
        <ele>145</ele>
        <time>2019-11-14T20:24:37Z</time>
      </trkpt>
      <trkpt lat="47.14342" lon="2.48573">
        <ele>146</ele>
        <time>2019-11-14T20:26:14Z</time>
      </trkpt>
      <trkpt lat="47.1442" lon="2.48611">
        <ele>146</ele>
        <time>2019-11-14T20:28:03Z</time>
      </trkpt>
      <trkpt lat="47.14561" lon="2.48645">
        <ele>146</ele>
        <time>2019-11-14T20:31:14Z</time>
      </trkpt>
      <trkpt lat="47.14597" lon="2.48662">
        <ele>146</ele>
        <time>2019-11-14T20:32:04Z</time>
      </trkpt>
      <trkpt lat="47.14612" lon="2.4868">
        <ele>147</ele>
        <time>2019-11-14T20:32:30Z</time>
      </trkpt>
      <trkpt lat="47.14612" lon="2.48697">
        <ele>148</ele>
        <time>2019-11-14T20:32:46Z</time>
      </trkpt>
      <trkpt lat="47.14631" lon="2.4869">
        <ele>148</ele>
        <time>2019-11-14T20:33:12Z</time>
      </trkpt>
      <trkpt lat="47.14651" lon="2.48702">
        <ele>149</ele>
        <time>2019-11-14T20:33:41Z</time>
      </trkpt>
      <trkpt lat="47.14704" lon="2.48742">
        <ele>151</ele>
        <time>2019-11-14T20:35:00Z</time>
      </trkpt>
      <trkpt lat="47.14757" lon="2.48753">
        <ele>152</ele>
        <time>2019-11-14T20:36:12Z</time>
      </trkpt>
      <trkpt lat="47.14842" lon="2.48787">
        <ele>149</ele>
        <time>2019-11-14T20:38:09Z</time>
      </trkpt>
      <trkpt lat="47.14826" lon="2.48838">
        <ele>150</ele>
        <time>2019-11-14T20:39:00Z</time>
      </trkpt>
      <trkpt lat="47.14868" lon="2.48856">
        <ele>150</ele>
        <time>2019-11-14T20:39:58Z</time>
      </trkpt>
      <trkpt lat="47.14847" lon="2.4894">
        <ele>154</ele>
        <time>2019-11-14T20:41:20Z</time>
      </trkpt>
      <trkpt lat="47.15049" lon="2.49128">
        <ele>156</ele>
        <time>2019-11-14T20:46:39Z</time>
      </trkpt>
      <trkpt lat="47.15199" lon="2.49259">
        <ele>157</ele>
        <time>2019-11-14T20:50:31Z</time>
      </trkpt>
      <trkpt lat="47.15435" lon="2.49457">
        <ele>157</ele>
        <time>2019-11-14T20:56:34Z</time>
      </trkpt>
      <trkpt lat="47.15516" lon="2.49611">
        <ele>155</ele>
        <time>2019-11-14T20:59:31Z</time>
      </trkpt>
      <trkpt lat="47.15524" lon="2.4964">
        <ele>155</ele>
        <time>2019-11-14T20:59:59Z</time>
      </trkpt>
      <trkpt lat="47.15586" lon="2.49553">
        <ele>153</ele>
        <time>2019-11-14T21:01:54Z</time>
      </trkpt>
      <trkpt lat="47.15662" lon="2.49684">
        <ele>152</ele>
        <time>2019-11-14T21:04:30Z</time>
      </trkpt>
      <trkpt lat="47.15683" lon="2.49735">
        <ele>153</ele>
        <time>2019-11-14T21:05:24Z</time>
      </trkpt>
      <trkpt lat="47.15723" lon="2.49868">
        <ele>153</ele>
        <time>2019-11-14T21:07:36Z</time>
      </trkpt>
      <trkpt lat="47.15976" lon="2.50612">
        <ele>151</ele>
        <time>2019-11-14T21:20:11Z</time>
      </trkpt>
      <trkpt lat="47.16004" lon="2.5066">
        <ele>151</ele>
        <time>2019-11-14T21:21:08Z</time>
      </trkpt>
      <trkpt lat="47.16109" lon="2.50776">
        <ele>151</ele>
        <time>2019-11-14T21:24:03Z</time>
      </trkpt>
      <trkpt lat="47.16182" lon="2.50864">
        <ele>153</ele>
        <time>2019-11-14T21:26:09Z</time>
      </trkpt>
      <trkpt lat="47.16231" lon="2.50942">
        <ele>154</ele>
        <time>2019-11-14T21:27:46Z</time>
      </trkpt>
      <trkpt lat="47.16421" lon="2.51369">
        <ele>157</ele>
        <time>2019-11-14T21:35:29Z</time>
      </trkpt>
      <trkpt lat="47.16469" lon="2.51262">
        <ele>156</ele>
        <time>2019-11-14T21:37:25Z</time>
      </trkpt>
      <trkpt lat="47.16482" lon="2.51269">
        <ele>156</ele>
        <time>2019-11-14T21:37:43Z</time>
      </trkpt>
      <trkpt lat="47.16818" lon="2.51569">
        <ele>162</ele>
        <time>2019-11-14T21:46:28Z</time>
      </trkpt>
      <trkpt lat="47.16888" lon="2.5162">
        <ele>162</ele>
        <time>2019-11-14T21:48:12Z</time>
      </trkpt>
      <trkpt lat="47.17228" lon="2.519">
        <ele>171</ele>
        <time>2019-11-14T21:56:52Z</time>
      </trkpt>
      <trkpt lat="47.17388" lon="2.5202">
        <ele>174</ele>
        <time>2019-11-14T22:00:52Z</time>
      </trkpt>
      <trkpt lat="47.174" lon="2.51999">
        <ele>175</ele>
        <time>2019-11-14T22:01:17Z</time>
      </trkpt>
      <trkpt lat="47.17549" lon="2.51609">
        <ele>159</ele>
        <time>2019-11-14T22:08:03Z</time>
      </trkpt>
      <trkpt lat="47.17684" lon="2.51665">
        <ele>159</ele>
        <time>2019-11-14T22:11:10Z</time>
      </trkpt>
      <trkpt lat="47.17761" lon="2.51676">
        <ele>159</ele>
        <time>2019-11-14T22:12:53Z</time>
      </trkpt>
      <trkpt lat="47.17797" lon="2.517">
        <ele>159</ele>
        <time>2019-11-14T22:13:46Z</time>
      </trkpt>
      <trkpt lat="47.17877" lon="2.51739">
        <ele>160</ele>
        <time>2019-11-14T22:15:38Z</time>
      </trkpt>
      <trkpt lat="47.17993" lon="2.51818">
        <ele>159</ele>
        <time>2019-11-14T22:18:29Z</time>
      </trkpt>
      <trkpt lat="47.18088" lon="2.51878">
        <ele>160</ele>
        <time>2019-11-14T22:20:47Z</time>
      </trkpt>
      <trkpt lat="47.18161" lon="2.5196">
        <ele>162</ele>
        <time>2019-11-14T22:22:49Z</time>
      </trkpt>
      <trkpt lat="47.18404" lon="2.52118">
        <ele>163</ele>
        <time>2019-11-14T22:28:44Z</time>
      </trkpt>
      <trkpt lat="47.18351" lon="2.52266">
        <ele>168</ele>
        <time>2019-11-14T22:31:16Z</time>
      </trkpt>
      <trkpt lat="47.18576" lon="2.52429">
        <ele>175</ele>
        <time>2019-11-14T22:36:50Z</time>
      </trkpt>
      <trkpt lat="47.18693" lon="2.52541">
        <ele>178</ele>
        <time>2019-11-14T22:39:56Z</time>
      </trkpt>
      <trkpt lat="47.18749" lon="2.52577">
        <ele>179</ele>
        <time>2019-11-14T22:41:18Z</time>
      </trkpt>
      <trkpt lat="47.18797" lon="2.52569">
        <ele>178</ele>
        <time>2019-11-14T22:42:22Z</time>
      </trkpt>
      <trkpt lat="47.18871" lon="2.52606">
        <ele>180</ele>
        <time>2019-11-14T22:44:07Z</time>
      </trkpt>
      <trkpt lat="47.18913" lon="2.52604">
        <ele>181</ele>
        <time>2019-11-14T22:45:03Z</time>
      </trkpt>
      <trkpt lat="47.19045" lon="2.52681">
        <ele>183</ele>
        <time>2019-11-14T22:48:12Z</time>
      </trkpt>
      <trkpt lat="47.1909" lon="2.5274">
        <ele>185</ele>
        <time>2019-11-14T22:49:33Z</time>
      </trkpt>
      <trkpt lat="47.19056" lon="2.52748">
        <ele>186</ele>
        <time>2019-11-14T22:50:19Z</time>
      </trkpt>
      <trkpt lat="47.19045" lon="2.52781">
        <ele>186</ele>
        <time>2019-11-14T22:50:52Z</time>
      </trkpt>
      <trkpt lat="47.19037" lon="2.52838">
        <ele>186</ele>
        <time>2019-11-14T22:51:45Z</time>
      </trkpt>
      <trkpt lat="47.1902" lon="2.52905">
        <ele>185</ele>
        <time>2019-11-14T22:52:50Z</time>
      </trkpt>
      <trkpt lat="47.19017" lon="2.52965">
        <ele>185</ele>
        <time>2019-11-14T22:53:44Z</time>
      </trkpt>
      <trkpt lat="47.19009" lon="2.53021">
        <ele>184</ele>
        <time>2019-11-14T22:54:36Z</time>
      </trkpt>
      <trkpt lat="47.19015" lon="2.53021">
        <ele>184</ele>
        <time>2019-11-14T22:54:44Z</time>
      </trkpt>
      <trkpt lat="47.19001" lon="2.53067">
        <ele>182</ele>
        <time>2019-11-14T22:55:30Z</time>
      </trkpt>
      <trkpt lat="47.18974" lon="2.53107">
        <ele>180</ele>
        <time>2019-11-14T22:56:21Z</time>
      </trkpt>
      <trkpt lat="47.18938" lon="2.53178">
        <ele>178</ele>
        <time>2019-11-14T22:57:41Z</time>
      </trkpt>
      <trkpt lat="47.18912" lon="2.5322">
        <ele>179</ele>
        <time>2019-11-14T22:58:33Z</time>
      </trkpt>
      <trkpt lat="47.18977" lon="2.53307">
        <ele>178</ele>
        <time>2019-11-14T23:00:30Z</time>
      </trkpt>
      <trkpt lat="47.19058" lon="2.53383">
        <ele>177</ele>
        <time>2019-11-14T23:02:38Z</time>
      </trkpt>
      <trkpt lat="47.19097" lon="2.5345">
        <ele>178</ele>
        <time>2019-11-14T23:03:58Z</time>
      </trkpt>
      <trkpt lat="47.19128" lon="2.5351">
        <ele>180</ele>
        <time>2019-11-14T23:05:07Z</time>
      </trkpt>
      <trkpt lat="47.19161" lon="2.53558">
        <ele>181</ele>
        <time>2019-11-14T23:06:09Z</time>
      </trkpt>
      <trkpt lat="47.19193" lon="2.53627">
        <ele>180</ele>
        <time>2019-11-14T23:07:24Z</time>
      </trkpt>
      <trkpt lat="47.19211" lon="2.53674">
        <ele>179</ele>
        <time>2019-11-14T23:08:13Z</time>
      </trkpt>
      <trkpt lat="47.19227" lon="2.5386">
        <ele>177</ele>
        <time>2019-11-14T23:11:03Z</time>
      </trkpt>
      <trkpt lat="47.19241" lon="2.5396">
        <ele>176</ele>
        <time>2019-11-14T23:12:36Z</time>
      </trkpt>
      <trkpt lat="47.19255" lon="2.54034">
        <ele>175</ele>
        <time>2019-11-14T23:13:45Z</time>
      </trkpt>
      <trkpt lat="47.19275" lon="2.5411">
        <ele>174</ele>
        <time>2019-11-14T23:14:59Z</time>
      </trkpt>
      <trkpt lat="47.19287" lon="2.54172">
        <ele>174</ele>
        <time>2019-11-14T23:15:58Z</time>
      </trkpt>
      <trkpt lat="47.19292" lon="2.54217">
        <ele>174</ele>
        <time>2019-11-14T23:16:39Z</time>
      </trkpt>
      <trkpt lat="47.19291" lon="2.54256">
        <ele>174</ele>
        <time>2019-11-14T23:17:15Z</time>
      </trkpt>
      <trkpt lat="47.19295" lon="2.54335">
        <ele>176</ele>
        <time>2019-11-14T23:18:26Z</time>
      </trkpt>
      <trkpt lat="47.19308" lon="2.54397">
        <ele>178</ele>
        <time>2019-11-14T23:19:25Z</time>
      </trkpt>
      <trkpt lat="47.19322" lon="2.54442">
        <ele>178</ele>
        <time>2019-11-14T23:20:10Z</time>
      </trkpt>
      <trkpt lat="47.1936" lon="2.54628">
        <ele>182</ele>
        <time>2019-11-14T23:23:06Z</time>
      </trkpt>
      <trkpt lat="47.19391" lon="2.54833">
        <ele>182</ele>
        <time>2019-11-14T23:26:17Z</time>
      </trkpt>
      <trkpt lat="47.19426" lon="2.54937">
        <ele>182</ele>
        <time>2019-11-14T23:28:02Z</time>
      </trkpt>
      <trkpt lat="47.19452" lon="2.54992">
        <ele>181</ele>
        <time>2019-11-14T23:29:03Z</time>
      </trkpt>
      <trkpt lat="47.19488" lon="2.55056">
        <ele>181</ele>
        <time>2019-11-14T23:30:18Z</time>
      </trkpt>
      <trkpt lat="47.19532" lon="2.55111">
        <ele>182</ele>
        <time>2019-11-14T23:31:35Z</time>
      </trkpt>
      <trkpt lat="47.19576" lon="2.55188">
        <ele>183</ele>
        <time>2019-11-14T23:33:06Z</time>
      </trkpt>
      <trkpt lat="47.19586" lon="2.55213">
        <ele>183</ele>
        <time>2019-11-14T23:33:33Z</time>
      </trkpt>
      <trkpt lat="47.19664" lon="2.55534">
        <ele>177</ele>
        <time>2019-11-14T23:38:42Z</time>
      </trkpt>
      <trkpt lat="47.19711" lon="2.55662">
        <ele>176</ele>
        <time>2019-11-14T23:40:54Z</time>
      </trkpt>
      <trkpt lat="47.19741" lon="2.55724">
        <ele>176</ele>
        <time>2019-11-14T23:42:03Z</time>
      </trkpt>
      <trkpt lat="47.19769" lon="2.55762">
        <ele>175</ele>
        <time>2019-11-14T23:42:53Z</time>
      </trkpt>
      <trkpt lat="47.19797" lon="2.55791">
        <ele>175</ele>
        <time>2019-11-14T23:43:39Z</time>
      </trkpt>
      <trkpt lat="47.19808" lon="2.55816">
        <ele>175</ele>
        <time>2019-11-14T23:44:06Z</time>
      </trkpt>
      <trkpt lat="47.19809" lon="2.55839">
        <ele>175</ele>
        <time>2019-11-14T23:44:27Z</time>
      </trkpt>
      <trkpt lat="47.1979" lon="2.55951">
        <ele>176</ele>
        <time>2019-11-14T23:46:12Z</time>
      </trkpt>
      <trkpt lat="47.19811" lon="2.5604">
        <ele>176</ele>
        <time>2019-11-14T23:47:37Z</time>
      </trkpt>
      <trkpt lat="47.19809" lon="2.56055">
        <ele>176</ele>
        <time>2019-11-14T23:47:51Z</time>
      </trkpt>
      <trkpt lat="47.19781" lon="2.5616">
        <ele>179</ele>
        <time>2019-11-14T23:49:33Z</time>
      </trkpt>
      <trkpt lat="47.1977" lon="2.56237">
        <ele>180</ele>
        <time>2019-11-14T23:50:45Z</time>
      </trkpt>
      <trkpt lat="47.19784" lon="2.56291">
        <ele>181</ele>
        <time>2019-11-14T23:51:37Z</time>
      </trkpt>
      <trkpt lat="47.19801" lon="2.56315">
        <ele>181</ele>
        <time>2019-11-14T23:52:09Z</time>
      </trkpt>
      <trkpt lat="47.19843" lon="2.56388">
        <ele>181</ele>
        <time>2019-11-14T23:53:35Z</time>
      </trkpt>
      <trkpt lat="47.19879" lon="2.56469">
        <ele>182</ele>
        <time>2019-11-14T23:55:03Z</time>
      </trkpt>
      <trkpt lat="47.19851" lon="2.5665">
        <ele>189</ele>
        <time>2019-11-14T23:57:51Z</time>
      </trkpt>
      <trkpt lat="47.19837" lon="2.56701">
        <ele>190</ele>
        <time>2019-11-14T23:58:41Z</time>
      </trkpt>
      <trkpt lat="47.1982" lon="2.56737">
        <ele>190</ele>
        <time>2019-11-14T23:59:21Z</time>
      </trkpt>
      <trkpt lat="47.19768" lon="2.56825">
        <ele>191</ele>
        <time>2019-11-15T00:01:07Z</time>
      </trkpt>
      <trkpt lat="47.19692" lon="2.56913">
        <ele>195</ele>
        <time>2019-11-15T00:03:16Z</time>
      </trkpt>
      <trkpt lat="47.19746" lon="2.57023">
        <ele>197</ele>
        <time>2019-11-15T00:05:19Z</time>
      </trkpt>
      <trkpt lat="47.19801" lon="2.56956">
        <ele>195</ele>
        <time>2019-11-15T00:06:54Z</time>
      </trkpt>
      <trkpt lat="47.19851" lon="2.56907">
        <ele>193</ele>
        <time>2019-11-15T00:08:14Z</time>
      </trkpt>
      <trkpt lat="47.19876" lon="2.56903">
        <ele>192</ele>
        <time>2019-11-15T00:08:48Z</time>
      </trkpt>
      <trkpt lat="47.19895" lon="2.56914">
        <ele>191</ele>
        <time>2019-11-15T00:09:15Z</time>
      </trkpt>
      <trkpt lat="47.19908" lon="2.56928">
        <ele>191</ele>
        <time>2019-11-15T00:09:37Z</time>
      </trkpt>
      <trkpt lat="47.19914" lon="2.56939">
        <ele>191</ele>
        <time>2019-11-15T00:09:49Z</time>
      </trkpt>
      <trkpt lat="47.19916" lon="2.56965">
        <ele>192</ele>
        <time>2019-11-15T00:10:13Z</time>
      </trkpt>
      <trkpt lat="47.19914" lon="2.57016">
        <ele>193</ele>
        <time>2019-11-15T00:10:59Z</time>
      </trkpt>
      <trkpt lat="47.19992" lon="2.56987">
        <ele>188</ele>
        <time>2019-11-15T00:12:47Z</time>
      </trkpt>
      <trkpt lat="47.20039" lon="2.57008">
        <ele>185</ele>
        <time>2019-11-15T00:13:52Z</time>
      </trkpt>
      <trkpt lat="47.20066" lon="2.57057">
        <ele>185</ele>
        <time>2019-11-15T00:14:49Z</time>
      </trkpt>
      <trkpt lat="47.20085" lon="2.57125">
        <ele>185</ele>
        <time>2019-11-15T00:15:56Z</time>
      </trkpt>
      <trkpt lat="47.20263" lon="2.57068">
        <ele>184</ele>
        <time>2019-11-15T00:19:59Z</time>
      </trkpt>
      <trkpt lat="47.2029" lon="2.5714">
        <ele>184</ele>
        <time>2019-11-15T00:21:14Z</time>
      </trkpt>
      <trkpt lat="47.20367" lon="2.57254">
        <ele>185</ele>
        <time>2019-11-15T00:23:40Z</time>
      </trkpt>
      <trkpt lat="47.20385" lon="2.57315">
        <ele>185</ele>
        <time>2019-11-15T00:24:40Z</time>
      </trkpt>
      <trkpt lat="47.20394" lon="2.57376">
        <ele>184</ele>
        <time>2019-11-15T00:25:36Z</time>
      </trkpt>
      <trkpt lat="47.20425" lon="2.57457">
        <ele>182</ele>
        <time>2019-11-15T00:27:01Z</time>
      </trkpt>
      <trkpt lat="47.20475" lon="2.57503">
        <ele>183</ele>
        <time>2019-11-15T00:28:19Z</time>
      </trkpt>
      <trkpt lat="47.20561" lon="2.57546">
        <ele>184</ele>
        <time>2019-11-15T00:30:21Z</time>
      </trkpt>
      <trkpt lat="47.20642" lon="2.57598">
        <ele>185</ele>
        <time>2019-11-15T00:32:19Z</time>
      </trkpt>
      <trkpt lat="47.20795" lon="2.57788">
        <ele>194</ele>
        <time>2019-11-15T00:36:46Z</time>
      </trkpt>
      <trkpt lat="47.20867" lon="2.57881">
        <ele>191</ele>
        <time>2019-11-15T00:38:53Z</time>
      </trkpt>
      <trkpt lat="47.20993" lon="2.58087">
        <ele>189</ele>
        <time>2019-11-15T00:43:05Z</time>
      </trkpt>
      <trkpt lat="47.2112" lon="2.58194">
        <ele>189</ele>
        <time>2019-11-15T00:46:20Z</time>
      </trkpt>
      <trkpt lat="47.21247" lon="2.58185">
        <ele>192</ele>
        <time>2019-11-15T00:49:10Z</time>
      </trkpt>
      <trkpt lat="47.21306" lon="2.58195">
        <ele>196</ele>
        <time>2019-11-15T00:50:29Z</time>
      </trkpt>
      <trkpt lat="47.21383" lon="2.58223">
        <ele>201</ele>
        <time>2019-11-15T00:52:15Z</time>
      </trkpt>
      <trkpt lat="47.21369" lon="2.58378">
        <ele>196</ele>
        <time>2019-11-15T00:54:37Z</time>
      </trkpt>
      <trkpt lat="47.21375" lon="2.58473">
        <ele>192</ele>
        <time>2019-11-15T00:56:03Z</time>
      </trkpt>
      <trkpt lat="47.21372" lon="2.58509">
        <ele>191</ele>
        <time>2019-11-15T00:56:36Z</time>
      </trkpt>
      <trkpt lat="47.21414" lon="2.58538">
        <ele>189</ele>
        <time>2019-11-15T00:57:38Z</time>
      </trkpt>
      <trkpt lat="47.21397" lon="2.58634">
        <ele>192</ele>
        <time>2019-11-15T00:59:08Z</time>
      </trkpt>
      <trkpt lat="47.21398" lon="2.58739">
        <ele>194</ele>
        <time>2019-11-15T01:00:43Z</time>
      </trkpt>
      <trkpt lat="47.21387" lon="2.58804">
        <ele>195</ele>
        <time>2019-11-15T01:01:44Z</time>
      </trkpt>
      <trkpt lat="47.21354" lon="2.58807">
        <ele>195</ele>
        <time>2019-11-15T01:02:28Z</time>
      </trkpt>
      <trkpt lat="47.21429" lon="2.58965">
        <ele>199</ele>
        <time>2019-11-15T01:05:22Z</time>
      </trkpt>
      <trkpt lat="47.21459" lon="2.58996">
        <ele>199</ele>
        <time>2019-11-15T01:06:11Z</time>
      </trkpt>
      <trkpt lat="47.21546" lon="2.59149">
        <ele>201</ele>
        <time>2019-11-15T01:09:12Z</time>
      </trkpt>
      <trkpt lat="47.21679" lon="2.595">
        <ele>203</ele>
        <time>2019-11-15T01:15:17Z</time>
      </trkpt>
      <trkpt lat="47.21698" lon="2.59556">
        <ele>202</ele>
        <time>2019-11-15T01:16:13Z</time>
      </trkpt>
      <trkpt lat="47.21709" lon="2.59601">
        <ele>201</ele>
        <time>2019-11-15T01:16:57Z</time>
      </trkpt>
      <trkpt lat="47.21737" lon="2.5969">
        <ele>198</ele>
        <time>2019-11-15T01:18:26Z</time>
      </trkpt>
      <trkpt lat="47.21826" lon="2.59864">
        <ele>198</ele>
        <time>2019-11-15T01:21:43Z</time>
      </trkpt>
      <trkpt lat="47.21842" lon="2.59924">
        <ele>198</ele>
        <time>2019-11-15T01:22:41Z</time>
      </trkpt>
      <trkpt lat="47.21826" lon="2.59943">
        <ele>198</ele>
        <time>2019-11-15T01:23:09Z</time>
      </trkpt>
      <trkpt lat="47.21816" lon="2.59962">
        <ele>197</ele>
        <time>2019-11-15T01:23:31Z</time>
      </trkpt>
      <trkpt lat="47.21777" lon="2.60017">
        <ele>197</ele>
        <time>2019-11-15T01:24:43Z</time>
      </trkpt>
      <trkpt lat="47.21759" lon="2.60053">
        <ele>197</ele>
        <time>2019-11-15T01:25:23Z</time>
      </trkpt>
      <trkpt lat="47.21745" lon="2.60111">
        <ele>199</ele>
        <time>2019-11-15T01:26:19Z</time>
      </trkpt>
      <trkpt lat="47.21733" lon="2.60191">
        <ele>202</ele>
        <time>2019-11-15T01:27:33Z</time>
      </trkpt>
      <trkpt lat="47.21734" lon="2.6024">
        <ele>202</ele>
        <time>2019-11-15T01:28:18Z</time>
      </trkpt>
      <trkpt lat="47.21752" lon="2.60296">
        <ele>204</ele>
        <time>2019-11-15T01:29:14Z</time>
      </trkpt>
      <trkpt lat="47.21754" lon="2.60449">
        <ele>212</ele>
        <time>2019-11-15T01:31:33Z</time>
      </trkpt>
      <trkpt lat="47.21752" lon="2.60537">
        <ele>218</ele>
        <time>2019-11-15T01:32:52Z</time>
      </trkpt>
      <trkpt lat="47.21754" lon="2.60593">
        <ele>222</ele>
        <time>2019-11-15T01:33:43Z</time>
      </trkpt>
      <trkpt lat="47.21744" lon="2.60654">
        <ele>225</ele>
        <time>2019-11-15T01:34:40Z</time>
      </trkpt>
      <trkpt lat="47.21732" lon="2.60829">
        <ele>226</ele>
        <time>2019-11-15T01:37:19Z</time>
      </trkpt>
      <trkpt lat="47.21715" lon="2.6087">
        <ele>225</ele>
        <time>2019-11-15T01:38:03Z</time>
      </trkpt>
      <trkpt lat="47.21695" lon="2.60901">
        <ele>223</ele>
        <time>2019-11-15T01:38:42Z</time>
      </trkpt>
      <trkpt lat="47.2168" lon="2.60934">
        <ele>222</ele>
        <time>2019-11-15T01:39:18Z</time>
      </trkpt>
      <trkpt lat="47.21661" lon="2.61017">
        <ele>221</ele>
        <time>2019-11-15T01:40:37Z</time>
      </trkpt>
      <trkpt lat="47.21641" lon="2.61067">
        <ele>218</ele>
        <time>2019-11-15T01:41:30Z</time>
      </trkpt>
      <trkpt lat="47.21641" lon="2.61107">
        <ele>218</ele>
        <time>2019-11-15T01:42:06Z</time>
      </trkpt>
      <trkpt lat="47.21635" lon="2.61179">
        <ele>217</ele>
        <time>2019-11-15T01:43:12Z</time>
      </trkpt>
      <trkpt lat="47.21642" lon="2.61193">
        <ele>217</ele>
        <time>2019-11-15T01:43:28Z</time>
      </trkpt>
      <trkpt lat="47.21642" lon="2.61348">
        <ele>215</ele>
        <time>2019-11-15T01:45:48Z</time>
      </trkpt>
      <trkpt lat="47.2181" lon="2.61681">
        <ele>222</ele>
        <time>2019-11-15T01:52:04Z</time>
      </trkpt>
      <trkpt lat="47.21841" lon="2.61721">
        <ele>224</ele>
        <time>2019-11-15T01:52:59Z</time>
      </trkpt>
      <trkpt lat="47.2186" lon="2.61755">
        <ele>225</ele>
        <time>2019-11-15T01:53:39Z</time>
      </trkpt>
      <trkpt lat="47.21905" lon="2.61822">
        <ele>228</ele>
        <time>2019-11-15T01:55:04Z</time>
      </trkpt>
      <trkpt lat="47.21957" lon="2.61879">
        <ele>231</ele>
        <time>2019-11-15T01:56:31Z</time>
      </trkpt>
      <trkpt lat="47.22002" lon="2.61915">
        <ele>235</ele>
        <time>2019-11-15T01:57:39Z</time>
      </trkpt>
      <trkpt lat="47.22058" lon="2.61971">
        <ele>242</ele>
        <time>2019-11-15T01:59:10Z</time>
      </trkpt>
      <trkpt lat="47.22097" lon="2.62013">
        <ele>247</ele>
        <time>2019-11-15T02:00:14Z</time>
      </trkpt>
      <trkpt lat="47.2215" lon="2.62078">
        <ele>254</ele>
        <time>2019-11-15T02:01:46Z</time>
      </trkpt>
      <trkpt lat="47.22184" lon="2.62113">
        <ele>257</ele>
        <time>2019-11-15T02:02:41Z</time>
      </trkpt>
      <trkpt lat="47.22236" lon="2.62149">
        <ele>258</ele>
        <time>2019-11-15T02:03:58Z</time>
      </trkpt>
      <trkpt lat="47.2231" lon="2.62179">
        <ele>255</ele>
        <time>2019-11-15T02:05:40Z</time>
      </trkpt>
      <trkpt lat="47.22367" lon="2.62198">
        <ele>256</ele>
        <time>2019-11-15T02:06:58Z</time>
      </trkpt>
      <trkpt lat="47.22537" lon="2.62241">
        <ele>263</ele>
        <time>2019-11-15T02:10:49Z</time>
      </trkpt>
      <trkpt lat="47.22574" lon="2.62269">
        <ele>264</ele>
        <time>2019-11-15T02:11:44Z</time>
      </trkpt>
      <trkpt lat="47.22609" lon="2.6229">
        <ele>266</ele>
        <time>2019-11-15T02:12:35Z</time>
      </trkpt>
      <trkpt lat="47.22657" lon="2.62332">
        <ele>268</ele>
        <time>2019-11-15T02:13:49Z</time>
      </trkpt>
      <trkpt lat="47.22703" lon="2.62386">
        <ele>271</ele>
        <time>2019-11-15T02:15:08Z</time>
      </trkpt>
      <trkpt lat="47.22789" lon="2.62511">
        <ele>273</ele>
        <time>2019-11-15T02:17:49Z</time>
      </trkpt>
      <trkpt lat="47.22877" lon="2.62648">
        <ele>271</ele>
        <time>2019-11-15T02:20:40Z</time>
      </trkpt>
      <trkpt lat="47.22937" lon="2.62766">
        <ele>272</ele>
        <time>2019-11-15T02:22:53Z</time>
      </trkpt>
      <trkpt lat="47.22968" lon="2.62706">
        <ele>274</ele>
        <time>2019-11-15T02:24:02Z</time>
      </trkpt>
      <trkpt lat="47.22994" lon="2.62615">
        <ele>275</ele>
        <time>2019-11-15T02:25:31Z</time>
      </trkpt>
      <trkpt lat="47.23013" lon="2.6258">
        <ele>274</ele>
        <time>2019-11-15T02:26:12Z</time>
      </trkpt>
      <trkpt lat="47.23027" lon="2.62589">
        <ele>273</ele>
        <time>2019-11-15T02:26:32Z</time>
      </trkpt>
      <trkpt lat="47.23037" lon="2.6258">
        <ele>272</ele>
        <time>2019-11-15T02:26:48Z</time>
      </trkpt>
      <trkpt lat="47.23164" lon="2.62575">
        <ele>266</ele>
        <time>2019-11-15T02:29:37Z</time>
      </trkpt>
      <trkpt lat="47.23178" lon="2.6259">
        <ele>264</ele>
        <time>2019-11-15T02:30:00Z</time>
      </trkpt>
      <trkpt lat="47.23197" lon="2.62616">
        <ele>260</ele>
        <time>2019-11-15T02:30:35Z</time>
      </trkpt>
      <trkpt lat="47.23254" lon="2.62723">
        <ele>252</ele>
        <time>2019-11-15T02:32:38Z</time>
      </trkpt>
      <trkpt lat="47.23282" lon="2.62766">
        <ele>247</ele>
        <time>2019-11-15T02:33:32Z</time>
      </trkpt>
      <trkpt lat="47.23362" lon="2.62831">
        <ele>239</ele>
        <time>2019-11-15T02:35:34Z</time>
      </trkpt>
      <trkpt lat="47.23389" lon="2.62819">
        <ele>236</ele>
        <time>2019-11-15T02:36:12Z</time>
      </trkpt>
      <trkpt lat="47.23458" lon="2.62718">
        <ele>229</ele>
        <time>2019-11-15T02:38:22Z</time>
      </trkpt>
      <trkpt lat="47.23481" lon="2.62696">
        <ele>227</ele>
        <time>2019-11-15T02:38:58Z</time>
      </trkpt>
      <trkpt lat="47.23499" lon="2.62685">
        <ele>225</ele>
        <time>2019-11-15T02:39:24Z</time>
      </trkpt>
      <trkpt lat="47.23522" lon="2.62679">
        <ele>226</ele>
        <time>2019-11-15T02:39:55Z</time>
      </trkpt>
      <trkpt lat="47.23554" lon="2.62735">
        <ele>227</ele>
        <time>2019-11-15T02:41:02Z</time>
      </trkpt>
      <trkpt lat="47.23567" lon="2.62763">
        <ele>228</ele>
        <time>2019-11-15T02:41:32Z</time>
      </trkpt>
      <trkpt lat="47.23603" lon="2.62793">
        <ele>230</ele>
        <time>2019-11-15T02:42:28Z</time>
      </trkpt>
      <trkpt lat="47.23668" lon="2.62825">
        <ele>234</ele>
        <time>2019-11-15T02:43:59Z</time>
      </trkpt>
      <trkpt lat="47.23743" lon="2.62786">
        <ele>236</ele>
        <time>2019-11-15T02:45:45Z</time>
      </trkpt>
      <trkpt lat="47.2386" lon="2.62759">
        <ele>242</ele>
        <time>2019-11-15T02:48:23Z</time>
      </trkpt>
      <trkpt lat="47.23896" lon="2.62764">
        <ele>244</ele>
        <time>2019-11-15T02:49:12Z</time>
      </trkpt>
      <trkpt lat="47.24079" lon="2.63075">
        <ele>260</ele>
        <time>2019-11-15T02:55:24Z</time>
      </trkpt>
      <trkpt lat="47.24165" lon="2.63318">
        <ele>270</ele>
        <time>2019-11-15T02:59:33Z</time>
      </trkpt>
      <trkpt lat="47.24213" lon="2.63489">
        <ele>276</ele>
        <time>2019-11-15T03:02:20Z</time>
      </trkpt>
      <trkpt lat="47.24243" lon="2.63532">
        <ele>280</ele>
        <time>2019-11-15T03:03:16Z</time>
      </trkpt>
      <trkpt lat="47.24408" lon="2.63742">
        <ele>291</ele>
        <time>2019-11-15T03:08:07Z</time>
      </trkpt>
      <trkpt lat="47.24503" lon="2.63915">
        <ele>294</ele>
        <time>2019-11-15T03:11:29Z</time>
      </trkpt>
      <trkpt lat="47.246" lon="2.64025">
        <ele>296</ele>
        <time>2019-11-15T03:14:12Z</time>
      </trkpt>
      <trkpt lat="47.24638" lon="2.64092">
        <ele>298</ele>
        <time>2019-11-15T03:15:31Z</time>
      </trkpt>
      <trkpt lat="47.24514" lon="2.64085">
        <ele>290</ele>
        <time>2019-11-15T03:18:17Z</time>
      </trkpt>
      <trkpt lat="47.24465" lon="2.6409">
        <ele>286</ele>
        <time>2019-11-15T03:19:22Z</time>
      </trkpt>
      <trkpt lat="47.24442" lon="2.64098">
        <ele>283</ele>
        <time>2019-11-15T03:19:54Z</time>
      </trkpt>
      <trkpt lat="47.24408" lon="2.64121">
        <ele>279</ele>
        <time>2019-11-15T03:20:44Z</time>
      </trkpt>
      <trkpt lat="47.24376" lon="2.64151">
        <ele>276</ele>
        <time>2019-11-15T03:21:34Z</time>
      </trkpt>
      <trkpt lat="47.24334" lon="2.64184">
        <ele>273</ele>
        <time>2019-11-15T03:22:38Z</time>
      </trkpt>
      <trkpt lat="47.24285" lon="2.64216">
        <ele>269</ele>
        <time>2019-11-15T03:23:49Z</time>
      </trkpt>
      <trkpt lat="47.2422" lon="2.64234">
        <ele>264</ele>
        <time>2019-11-15T03:25:18Z</time>
      </trkpt>
      <trkpt lat="47.24189" lon="2.64252">
        <ele>262</ele>
        <time>2019-11-15T03:26:02Z</time>
      </trkpt>
      <trkpt lat="47.24122" lon="2.64282">
        <ele>254</ele>
        <time>2019-11-15T03:27:36Z</time>
      </trkpt>
      <trkpt lat="47.24083" lon="2.64307">
        <ele>250</ele>
        <time>2019-11-15T03:28:32Z</time>
      </trkpt>
      <trkpt lat="47.24154" lon="2.64456">
        <ele>250</ele>
        <time>2019-11-15T03:31:17Z</time>
      </trkpt>
      <trkpt lat="47.24191" lon="2.64505">
        <ele>250</ele>
        <time>2019-11-15T03:32:24Z</time>
      </trkpt>
      <trkpt lat="47.24215" lon="2.64535">
        <ele>250</ele>
        <time>2019-11-15T03:33:06Z</time>
      </trkpt>
      <trkpt lat="47.24231" lon="2.6455">
        <ele>250</ele>
        <time>2019-11-15T03:33:31Z</time>
      </trkpt>
      <trkpt lat="47.24253" lon="2.6458">
        <ele>249</ele>
        <time>2019-11-15T03:34:11Z</time>
      </trkpt>
      <trkpt lat="47.24283" lon="2.64605">
        <ele>248</ele>
        <time>2019-11-15T03:34:57Z</time>
      </trkpt>
      <trkpt lat="47.24354" lon="2.64673">
        <ele>248</ele>
        <time>2019-11-15T03:36:50Z</time>
      </trkpt>
      <trkpt lat="47.24377" lon="2.64712">
        <ele>248</ele>
        <time>2019-11-15T03:37:37Z</time>
      </trkpt>
      <trkpt lat="47.24399" lon="2.64761">
        <ele>249</ele>
        <time>2019-11-15T03:38:30Z</time>
      </trkpt>
      <trkpt lat="47.2442" lon="2.64818">
        <ele>249</ele>
        <time>2019-11-15T03:39:29Z</time>
      </trkpt>
      <trkpt lat="47.24481" lon="2.64961">
        <ele>257</ele>
        <time>2019-11-15T03:42:02Z</time>
      </trkpt>
      <trkpt lat="47.24509" lon="2.64996">
        <ele>258</ele>
        <time>2019-11-15T03:42:51Z</time>
      </trkpt>
      <trkpt lat="47.24586" lon="2.65054">
        <ele>262</ele>
        <time>2019-11-15T03:44:46Z</time>
      </trkpt>
      <trkpt lat="47.24633" lon="2.65079">
        <ele>263</ele>
        <time>2019-11-15T03:45:53Z</time>
      </trkpt>
      <trkpt lat="47.24734" lon="2.65111">
        <ele>263</ele>
        <time>2019-11-15T03:48:11Z</time>
      </trkpt>
      <trkpt lat="47.2481" lon="2.65126">
        <ele>264</ele>
        <time>2019-11-15T03:49:53Z</time>
      </trkpt>
      <trkpt lat="47.24838" lon="2.65143">
        <ele>265</ele>
        <time>2019-11-15T03:50:34Z</time>
      </trkpt>
      <trkpt lat="47.24879" lon="2.65176">
        <ele>270</ele>
        <time>2019-11-15T03:51:36Z</time>
      </trkpt>
      <trkpt lat="47.24917" lon="2.65198">
        <ele>274</ele>
        <time>2019-11-15T03:52:30Z</time>
      </trkpt>
      <trkpt lat="47.24978" lon="2.65239">
        <ele>280</ele>
        <time>2019-11-15T03:54:00Z</time>
      </trkpt>
      <trkpt lat="47.25001" lon="2.65258">
        <ele>283</ele>
        <time>2019-11-15T03:54:35Z</time>
      </trkpt>
      <trkpt lat="47.2503" lon="2.65277">
        <ele>284</ele>
        <time>2019-11-15T03:55:17Z</time>
      </trkpt>
      <trkpt lat="47.25061" lon="2.65303">
        <ele>287</ele>
        <time>2019-11-15T03:56:05Z</time>
      </trkpt>
      <trkpt lat="47.25083" lon="2.65311">
        <ele>287</ele>
        <time>2019-11-15T03:56:35Z</time>
      </trkpt>
      <trkpt lat="47.25106" lon="2.65336">
        <ele>289</ele>
        <time>2019-11-15T03:57:13Z</time>
      </trkpt>
      <trkpt lat="47.2515" lon="2.654">
        <ele>293</ele>
        <time>2019-11-15T03:58:36Z</time>
      </trkpt>
      <trkpt lat="47.25195" lon="2.65447">
        <ele>296</ele>
        <time>2019-11-15T03:59:49Z</time>
      </trkpt>
      <trkpt lat="47.25229" lon="2.65473">
        <ele>298</ele>
        <time>2019-11-15T04:00:41Z</time>
      </trkpt>
      <trkpt lat="47.25244" lon="2.65497">
        <ele>300</ele>
        <time>2019-11-15T04:01:10Z</time>
      </trkpt>
      <trkpt lat="47.25262" lon="2.65684">
        <ele>308</ele>
        <time>2019-11-15T04:04:01Z</time>
      </trkpt>
      <trkpt lat="47.25287" lon="2.65805">
        <ele>315</ele>
        <time>2019-11-15T04:05:56Z</time>
      </trkpt>
      <trkpt lat="47.25323" lon="2.65937">
        <ele>321</ele>
        <time>2019-11-15T04:08:05Z</time>
      </trkpt>
      <trkpt lat="47.25346" lon="2.65981">
        <ele>322</ele>
        <time>2019-11-15T04:08:55Z</time>
      </trkpt>
      <trkpt lat="47.25365" lon="2.66028">
        <ele>323</ele>
        <time>2019-11-15T04:09:45Z</time>
      </trkpt>
      <trkpt lat="47.25453" lon="2.65861">
        <ele>322</ele>
        <time>2019-11-15T04:12:56Z</time>
      </trkpt>
      <trkpt lat="47.2548" lon="2.65897">
        <ele>322</ele>
        <time>2019-11-15T04:13:45Z</time>
      </trkpt>
      <trkpt lat="47.25576" lon="2.66066">
        <ele>313</ele>
        <time>2019-11-15T04:17:04Z</time>
      </trkpt>
      <trkpt lat="47.25532" lon="2.66144">
        <ele>312</ele>
        <time>2019-11-15T04:18:36Z</time>
      </trkpt>
      <trkpt lat="47.25504" lon="2.66182">
        <ele>312</ele>
        <time>2019-11-15T04:19:27Z</time>
      </trkpt>
      <trkpt lat="47.25417" lon="2.66229">
        <ele>316</ele>
        <time>2019-11-15T04:21:31Z</time>
      </trkpt>
      <trkpt lat="47.25433" lon="2.66346">
        <ele>308</ele>
        <time>2019-11-15T04:23:19Z</time>
      </trkpt>
      <trkpt lat="47.2543" lon="2.66416">
        <ele>302</ele>
        <time>2019-11-15T04:24:22Z</time>
      </trkpt>
      <trkpt lat="47.2543" lon="2.66487">
        <ele>301</ele>
        <time>2019-11-15T04:25:26Z</time>
      </trkpt>
      <trkpt lat="47.25471" lon="2.66633">
        <ele>298</ele>
        <time>2019-11-15T04:27:50Z</time>
      </trkpt>
      <trkpt lat="47.25519" lon="2.66745">
        <ele>294</ele>
        <time>2019-11-15T04:29:50Z</time>
      </trkpt>
      <trkpt lat="47.25606" lon="2.66991">
        <ele>286</ele>
        <time>2019-11-15T04:34:01Z</time>
      </trkpt>
      <trkpt lat="47.25762" lon="2.67504">
        <ele>289</ele>
        <time>2019-11-15T04:42:30Z</time>
      </trkpt>
      <trkpt lat="47.25794" lon="2.67584">
        <ele>296</ele>
        <time>2019-11-15T04:43:54Z</time>
      </trkpt>
      <trkpt lat="47.25791" lon="2.67614">
        <ele>298</ele>
        <time>2019-11-15T04:44:22Z</time>
      </trkpt>
      <trkpt lat="47.25813" lon="2.67642">
        <ele>299</ele>
        <time>2019-11-15T04:45:00Z</time>
      </trkpt>
      <trkpt lat="47.2585" lon="2.67811">
        <ele>311</ele>
        <time>2019-11-15T04:47:41Z</time>
      </trkpt>
      <trkpt lat="47.25883" lon="2.67993">
        <ele>317</ele>
        <time>2019-11-15T04:50:32Z</time>
      </trkpt>
      <trkpt lat="47.25933" lon="2.68187">
        <ele>317</ele>
        <time>2019-11-15T04:53:40Z</time>
      </trkpt>
      <trkpt lat="47.25978" lon="2.6829">
        <ele>314</ele>
        <time>2019-11-15T04:55:31Z</time>
      </trkpt>
      <trkpt lat="47.26018" lon="2.68409">
        <ele>312</ele>
        <time>2019-11-15T04:57:31Z</time>
      </trkpt>
      <trkpt lat="47.26091" lon="2.68388">
        <ele>319</ele>
        <time>2019-11-15T04:59:10Z</time>
      </trkpt>
      <trkpt lat="47.26113" lon="2.6842">
        <ele>317</ele>
        <time>2019-11-15T04:59:51Z</time>
      </trkpt>
      <trkpt lat="47.26125" lon="2.68453">
        <ele>317</ele>
        <time>2019-11-15T05:00:25Z</time>
      </trkpt>
      <trkpt lat="47.2618" lon="2.68459">
        <ele>316</ele>
        <time>2019-11-15T05:01:39Z</time>
      </trkpt>
      <trkpt lat="47.26216" lon="2.6847">
        <ele>313</ele>
        <time>2019-11-15T05:02:28Z</time>
      </trkpt>
      <trkpt lat="47.26297" lon="2.68487">
        <ele>307</ele>
        <time>2019-11-15T05:04:17Z</time>
      </trkpt>
      <trkpt lat="47.26336" lon="2.68526">
        <ele>306</ele>
        <time>2019-11-15T05:05:20Z</time>
      </trkpt>
      <trkpt lat="47.26406" lon="2.68577">
        <ele>308</ele>
        <time>2019-11-15T05:07:04Z</time>
      </trkpt>
      <trkpt lat="47.26464" lon="2.68573">
        <ele>306</ele>
        <time>2019-11-15T05:08:22Z</time>
      </trkpt>
      <trkpt lat="47.26562" lon="2.68526">
        <ele>298</ele>
        <time>2019-11-15T05:10:39Z</time>
      </trkpt>
      <trkpt lat="47.26598" lon="2.68491">
        <ele>295</ele>
        <time>2019-11-15T05:11:37Z</time>
      </trkpt>
      <trkpt lat="47.26637" lon="2.6842">
        <ele>290</ele>
        <time>2019-11-15T05:13:00Z</time>
      </trkpt>
      <trkpt lat="47.26665" lon="2.68388">
        <ele>288</ele>
        <time>2019-11-15T05:13:47Z</time>
      </trkpt>
      <trkpt lat="47.26716" lon="2.68367">
        <ele>289</ele>
        <time>2019-11-15T05:14:58Z</time>
      </trkpt>
      <trkpt lat="47.26789" lon="2.68393">
        <ele>295</ele>
        <time>2019-11-15T05:16:38Z</time>
      </trkpt>
      <trkpt lat="47.26824" lon="2.68414">
        <ele>299</ele>
        <time>2019-11-15T05:17:28Z</time>
      </trkpt>
      <trkpt lat="47.26838" lon="2.68435">
        <ele>300</ele>
        <time>2019-11-15T05:17:55Z</time>
      </trkpt>
      <trkpt lat="47.2685" lon="2.68429">
        <ele>302</ele>
        <time>2019-11-15T05:18:12Z</time>
      </trkpt>
      <trkpt lat="47.26901" lon="2.68466">
        <ele>307</ele>
        <time>2019-11-15T05:19:28Z</time>
      </trkpt>
      <trkpt lat="47.2709" lon="2.68623">
        <ele>317</ele>
        <time>2019-11-15T05:24:17Z</time>
      </trkpt>
      <trkpt lat="47.27089" lon="2.68551">
        <ele>318</ele>
        <time>2019-11-15T05:25:22Z</time>
      </trkpt>
      <trkpt lat="47.27103" lon="2.68468">
        <ele>321</ele>
        <time>2019-11-15T05:26:40Z</time>
      </trkpt>
      <trkpt lat="47.27138" lon="2.68343">
        <ele>326</ele>
        <time>2019-11-15T05:28:42Z</time>
      </trkpt>
      <trkpt lat="47.2715" lon="2.68311">
        <ele>327</ele>
        <time>2019-11-15T05:29:15Z</time>
      </trkpt>
      <trkpt lat="47.27178" lon="2.6826">
        <ele>329</ele>
        <time>2019-11-15T05:30:15Z</time>
      </trkpt>
      <trkpt lat="47.27217" lon="2.6821">
        <ele>326</ele>
        <time>2019-11-15T05:31:24Z</time>
      </trkpt>
      <trkpt lat="47.27303" lon="2.68116">
        <ele>320</ele>
        <time>2019-11-15T05:33:47Z</time>
      </trkpt>
      <trkpt lat="47.27466" lon="2.68018">
        <ele>315</ele>
        <time>2019-11-15T05:37:41Z</time>
      </trkpt>
      <trkpt lat="47.27492" lon="2.68075">
        <ele>317</ele>
        <time>2019-11-15T05:38:44Z</time>
      </trkpt>
      <trkpt lat="47.27507" lon="2.68129">
        <ele>316</ele>
        <time>2019-11-15T05:39:36Z</time>
      </trkpt>
      <trkpt lat="47.27533" lon="2.68257">
        <ele>314</ele>
        <time>2019-11-15T05:41:37Z</time>
      </trkpt>
      <trkpt lat="47.27555" lon="2.68341">
        <ele>316</ele>
        <time>2019-11-15T05:42:59Z</time>
      </trkpt>
      <trkpt lat="47.27576" lon="2.68399">
        <ele>318</ele>
        <time>2019-11-15T05:43:59Z</time>
      </trkpt>
      <trkpt lat="47.27603" lon="2.68448">
        <ele>320</ele>
        <time>2019-11-15T05:44:56Z</time>
      </trkpt>
      <trkpt lat="47.27585" lon="2.6853">
        <ele>321</ele>
        <time>2019-11-15T05:46:14Z</time>
      </trkpt>
      <trkpt lat="47.27592" lon="2.6862">
        <ele>321</ele>
        <time>2019-11-15T05:47:36Z</time>
      </trkpt>
      <trkpt lat="47.2762" lon="2.68674">
        <ele>319</ele>
        <time>2019-11-15T05:48:37Z</time>
      </trkpt>
      <trkpt lat="47.27651" lon="2.68676">
        <ele>318</ele>
        <time>2019-11-15T05:49:19Z</time>
      </trkpt>
      <trkpt lat="47.27691" lon="2.68751">
        <ele>314</ele>
        <time>2019-11-15T05:50:45Z</time>
      </trkpt>
      <trkpt lat="47.27726" lon="2.68854">
        <ele>309</ele>
        <time>2019-11-15T05:52:29Z</time>
      </trkpt>
      <trkpt lat="47.27741" lon="2.69026">
        <ele>301</ele>
        <time>2019-11-15T05:55:06Z</time>
      </trkpt>
      <trkpt lat="47.27725" lon="2.69144">
        <ele>296</ele>
        <time>2019-11-15T05:56:55Z</time>
      </trkpt>
      <trkpt lat="47.27718" lon="2.69298">
        <ele>291</ele>
        <time>2019-11-15T05:59:15Z</time>
      </trkpt>
      <trkpt lat="47.27723" lon="2.69405">
        <ele>289</ele>
        <time>2019-11-15T06:00:52Z</time>
      </trkpt>
      <trkpt lat="47.27777" lon="2.69541">
        <ele>284</ele>
        <time>2019-11-15T06:03:15Z</time>
      </trkpt>
      <trkpt lat="47.27814" lon="2.69626">
        <ele>280</ele>
        <time>2019-11-15T06:04:46Z</time>
      </trkpt>
      <trkpt lat="47.27846" lon="2.69686">
        <ele>279</ele>
        <time>2019-11-15T06:05:55Z</time>
      </trkpt>
      <trkpt lat="47.2784" lon="2.69852">
        <ele>273</ele>
        <time>2019-11-15T06:08:26Z</time>
      </trkpt>
      <trkpt lat="47.27834" lon="2.69918">
        <ele>270</ele>
        <time>2019-11-15T06:09:26Z</time>
      </trkpt>
      <trkpt lat="47.27836" lon="2.70002">
        <ele>267</ele>
        <time>2019-11-15T06:10:42Z</time>
      </trkpt>
      <trkpt lat="47.27809" lon="2.70103">
        <ele>261</ele>
        <time>2019-11-15T06:12:20Z</time>
      </trkpt>
      <trkpt lat="47.27776" lon="2.70184">
        <ele>259</ele>
        <time>2019-11-15T06:13:46Z</time>
      </trkpt>
      <trkpt lat="47.27735" lon="2.70442">
        <ele>260</ele>
        <time>2019-11-15T06:17:46Z</time>
      </trkpt>
      <trkpt lat="47.27777" lon="2.70489">
        <ele>259</ele>
        <time>2019-11-15T06:18:56Z</time>
      </trkpt>
      <trkpt lat="47.27847" lon="2.70523">
        <ele>258</ele>
        <time>2019-11-15T06:20:35Z</time>
      </trkpt>
      <trkpt lat="47.27905" lon="2.70545">
        <ele>258</ele>
        <time>2019-11-15T06:21:55Z</time>
      </trkpt>
      <trkpt lat="47.27956" lon="2.70571">
        <ele>258</ele>
        <time>2019-11-15T06:23:07Z</time>
      </trkpt>
      <trkpt lat="47.2798" lon="2.70603">
        <ele>258</ele>
        <time>2019-11-15T06:23:50Z</time>
      </trkpt>
      <trkpt lat="47.28007" lon="2.7068">
        <ele>259</ele>
        <time>2019-11-15T06:25:08Z</time>
      </trkpt>
      <trkpt lat="47.28051" lon="2.70671">
        <ele>257</ele>
        <time>2019-11-15T06:26:08Z</time>
      </trkpt>
      <trkpt lat="47.281" lon="2.70704">
        <ele>254</ele>
        <time>2019-11-15T06:27:19Z</time>
      </trkpt>
      <trkpt lat="47.28137" lon="2.70744">
        <ele>254</ele>
        <time>2019-11-15T06:28:21Z</time>
      </trkpt>
      <trkpt lat="47.28165" lon="2.70766">
        <ele>254</ele>
        <time>2019-11-15T06:29:03Z</time>
      </trkpt>
      <trkpt lat="47.28246" lon="2.71043">
        <ele>256</ele>
        <time>2019-11-15T06:33:36Z</time>
      </trkpt>
      <trkpt lat="47.28338" lon="2.71328">
        <ele>268</ele>
        <time>2019-11-15T06:38:22Z</time>
      </trkpt>
      <trkpt lat="47.28444" lon="2.71596">
        <ele>271</ele>
        <time>2019-11-15T06:43:03Z</time>
      </trkpt>
      <trkpt lat="47.28495" lon="2.71714">
        <ele>262</ele>
        <time>2019-11-15T06:45:09Z</time>
      </trkpt>
      <trkpt lat="47.28508" lon="2.7177">
        <ele>259</ele>
        <time>2019-11-15T06:46:03Z</time>
      </trkpt>
      <trkpt lat="47.28512" lon="2.71871">
        <ele>257</ele>
        <time>2019-11-15T06:47:34Z</time>
      </trkpt>
      <trkpt lat="47.28552" lon="2.72126">
        <ele>254</ele>
        <time>2019-11-15T06:51:31Z</time>
      </trkpt>
      <trkpt lat="47.286" lon="2.72182">
        <ele>252</ele>
        <time>2019-11-15T06:52:53Z</time>
      </trkpt>
      <trkpt lat="47.28652" lon="2.72291">
        <ele>249</ele>
        <time>2019-11-15T06:54:54Z</time>
      </trkpt>
      <trkpt lat="47.28707" lon="2.72382">
        <ele>247</ele>
        <time>2019-11-15T06:56:44Z</time>
      </trkpt>
      <trkpt lat="47.28742" lon="2.72427">
        <ele>246</ele>
        <time>2019-11-15T06:57:46Z</time>
      </trkpt>
      <trkpt lat="47.28788" lon="2.72436">
        <ele>245</ele>
        <time>2019-11-15T06:58:48Z</time>
      </trkpt>
      <trkpt lat="47.28818" lon="2.72515">
        <ele>244</ele>
        <time>2019-11-15T07:00:10Z</time>
      </trkpt>
      <trkpt lat="47.28875" lon="2.72834">
        <ele>246</ele>
        <time>2019-11-15T07:05:08Z</time>
      </trkpt>
      <trkpt lat="47.28939" lon="2.73167">
        <ele>244</ele>
        <time>2019-11-15T07:10:22Z</time>
      </trkpt>
      <trkpt lat="47.2892" lon="2.73502">
        <ele>247</ele>
        <time>2019-11-15T07:15:26Z</time>
      </trkpt>
      <trkpt lat="47.28897" lon="2.73596">
        <ele>248</ele>
        <time>2019-11-15T07:16:56Z</time>
      </trkpt>
      <trkpt lat="47.2891" lon="2.73817">
        <ele>251</ele>
        <time>2019-11-15T07:20:17Z</time>
      </trkpt>
      <trkpt lat="47.2892" lon="2.73907">
        <ele>250</ele>
        <time>2019-11-15T07:21:40Z</time>
      </trkpt>
      <trkpt lat="47.28924" lon="2.73976">
        <ele>249</ele>
        <time>2019-11-15T07:22:43Z</time>
      </trkpt>
      <trkpt lat="47.28876" lon="2.74077">
        <ele>247</ele>
        <time>2019-11-15T07:24:34Z</time>
      </trkpt>
      <trkpt lat="47.28814" lon="2.74248">
        <ele>248</ele>
        <time>2019-11-15T07:27:30Z</time>
      </trkpt>
      <trkpt lat="47.28764" lon="2.74396">
        <ele>251</ele>
        <time>2019-11-15T07:29:59Z</time>
      </trkpt>
      <trkpt lat="47.28731" lon="2.74444">
        <ele>251</ele>
        <time>2019-11-15T07:31:01Z</time>
      </trkpt>
      <trkpt lat="47.28709" lon="2.74502">
        <ele>250</ele>
        <time>2019-11-15T07:32:01Z</time>
      </trkpt>
      <trkpt lat="47.28705" lon="2.7463">
        <ele>249</ele>
        <time>2019-11-15T07:33:57Z</time>
      </trkpt>
      <trkpt lat="47.28702" lon="2.74663">
        <ele>249</ele>
        <time>2019-11-15T07:34:27Z</time>
      </trkpt>
      <trkpt lat="47.28876" lon="2.74697">
        <ele>251</ele>
        <time>2019-11-15T07:38:22Z</time>
      </trkpt>
      <trkpt lat="47.29092" lon="2.74705">
        <ele>255</ele>
        <time>2019-11-15T07:43:10Z</time>
      </trkpt>
      <trkpt lat="47.29162" lon="2.74678">
        <ele>256</ele>
        <time>2019-11-15T07:44:47Z</time>
      </trkpt>
      <trkpt lat="47.29247" lon="2.74678">
        <ele>256</ele>
        <time>2019-11-15T07:46:40Z</time>
      </trkpt>
      <trkpt lat="47.2941" lon="2.74699">
        <ele>256</ele>
        <time>2019-11-15T07:50:18Z</time>
      </trkpt>
      <trkpt lat="47.29588" lon="2.74746">
        <ele>260</ele>
        <time>2019-11-15T07:54:20Z</time>
      </trkpt>
      <trkpt lat="47.29608" lon="2.74903">
        <ele>258</ele>
        <time>2019-11-15T07:56:44Z</time>
      </trkpt>
      <trkpt lat="47.29619" lon="2.75012">
        <ele>258</ele>
        <time>2019-11-15T07:58:24Z</time>
      </trkpt>
      <trkpt lat="47.29659" lon="2.75154">
        <ele>260</ele>
        <time>2019-11-15T08:00:43Z</time>
      </trkpt>
      <trkpt lat="47.29744" lon="2.75435">
        <ele>263</ele>
        <time>2019-11-15T08:05:22Z</time>
      </trkpt>
      <trkpt lat="47.29795" lon="2.75527">
        <ele>264</ele>
        <time>2019-11-15T08:07:09Z</time>
      </trkpt>
      <trkpt lat="47.29822" lon="2.75607">
        <ele>264</ele>
        <time>2019-11-15T08:08:30Z</time>
      </trkpt>
      <trkpt lat="47.29904" lon="2.75828">
        <ele>249</ele>
        <time>2019-11-15T08:12:18Z</time>
      </trkpt>
      <trkpt lat="47.29924" lon="2.75873">
        <ele>250</ele>
        <time>2019-11-15T08:13:07Z</time>
      </trkpt>
      <trkpt lat="47.29911" lon="2.75984">
        <ele>255</ele>
        <time>2019-11-15T08:14:49Z</time>
      </trkpt>
      <trkpt lat="47.29929" lon="2.76102">
        <ele>257</ele>
        <time>2019-11-15T08:16:38Z</time>
      </trkpt>
      <trkpt lat="47.29929" lon="2.76147">
        <ele>254</ele>
        <time>2019-11-15T08:17:19Z</time>
      </trkpt>
      <trkpt lat="47.29949" lon="2.76248">
        <ele>247</ele>
        <time>2019-11-15T08:18:54Z</time>
      </trkpt>
      <trkpt lat="47.30014" lon="2.76255">
        <ele>246</ele>
        <time>2019-11-15T08:20:21Z</time>
      </trkpt>
      <trkpt lat="47.30067" lon="2.76246">
        <ele>246</ele>
        <time>2019-11-15T08:21:32Z</time>
      </trkpt>
      <trkpt lat="47.30102" lon="2.76246">
        <ele>245</ele>
        <time>2019-11-15T08:22:19Z</time>
      </trkpt>
      <trkpt lat="47.30156" lon="2.76291">
        <ele>243</ele>
        <time>2019-11-15T08:23:42Z</time>
      </trkpt>
      <trkpt lat="47.30259" lon="2.76394">
        <ele>247</ele>
        <time>2019-11-15T08:26:28Z</time>
      </trkpt>
      <trkpt lat="47.30383" lon="2.76454">
        <ele>249</ele>
        <time>2019-11-15T08:29:22Z</time>
      </trkpt>
      <trkpt lat="47.30467" lon="2.76467">
        <ele>252</ele>
        <time>2019-11-15T08:31:15Z</time>
      </trkpt>
      <trkpt lat="47.30541" lon="2.76463">
        <ele>254</ele>
        <time>2019-11-15T08:32:53Z</time>
      </trkpt>
      <trkpt lat="47.30602" lon="2.76467">
        <ele>255</ele>
        <time>2019-11-15T08:34:15Z</time>
      </trkpt>
      <trkpt lat="47.30647" lon="2.76482">
        <ele>255</ele>
        <time>2019-11-15T08:35:16Z</time>
      </trkpt>
      <trkpt lat="47.30692" lon="2.76521">
        <ele>256</ele>
        <time>2019-11-15T08:36:26Z</time>
      </trkpt>
      <trkpt lat="47.307" lon="2.76598">
        <ele>256</ele>
        <time>2019-11-15T08:37:37Z</time>
      </trkpt>
      <trkpt lat="47.30724" lon="2.76669">
        <ele>259</ele>
        <time>2019-11-15T08:38:48Z</time>
      </trkpt>
      <trkpt lat="47.30708" lon="2.76748">
        <ele>266</ele>
        <time>2019-11-15T08:40:03Z</time>
      </trkpt>
      <trkpt lat="47.30687" lon="2.76883">
        <ele>284</ele>
        <time>2019-11-15T08:42:08Z</time>
      </trkpt>
      <trkpt lat="47.30678" lon="2.77167">
        <ele>327</ele>
        <time>2019-11-15T08:46:26Z</time>
      </trkpt>
      <trkpt lat="47.307" lon="2.77257">
        <ele>334</ele>
        <time>2019-11-15T08:47:52Z</time>
      </trkpt>
      <trkpt lat="47.30688" lon="2.77443">
        <ele>340</ele>
        <time>2019-11-15T08:50:41Z</time>
      </trkpt>
      <trkpt lat="47.30714" lon="2.77581">
        <ele>343</ele>
        <time>2019-11-15T08:52:51Z</time>
      </trkpt>
      <trkpt lat="47.3073" lon="2.7774">
        <ele>339</ele>
        <time>2019-11-15T08:55:16Z</time>
      </trkpt>
      <trkpt lat="47.30754" lon="2.7789">
        <ele>335</ele>
        <time>2019-11-15T08:57:36Z</time>
      </trkpt>
      <trkpt lat="47.3079" lon="2.77982">
        <ele>334</ele>
        <time>2019-11-15T08:59:12Z</time>
      </trkpt>
      <trkpt lat="47.3089" lon="2.78171">
        <ele>332</ele>
        <time>2019-11-15T09:02:49Z</time>
      </trkpt>
      <trkpt lat="47.3095" lon="2.78252">
        <ele>325</ele>
        <time>2019-11-15T09:04:37Z</time>
      </trkpt>
      <trkpt lat="47.31002" lon="2.78402">
        <ele>308</ele>
        <time>2019-11-15T09:07:10Z</time>
      </trkpt>
      <trkpt lat="47.30976" lon="2.78484">
        <ele>297</ele>
        <time>2019-11-15T09:08:32Z</time>
      </trkpt>
      <trkpt lat="47.30867" lon="2.78531">
        <ele>288</ele>
        <time>2019-11-15T09:11:03Z</time>
      </trkpt>
      <trkpt lat="47.30754" lon="2.78628">
        <ele>283</ele>
        <time>2019-11-15T09:13:58Z</time>
      </trkpt>
      <trkpt lat="47.30765" lon="2.78804">
        <ele>275</ele>
        <time>2019-11-15T09:16:38Z</time>
      </trkpt>
      <trkpt lat="47.30815" lon="2.78939">
        <ele>262</ele>
        <time>2019-11-15T09:18:57Z</time>
      </trkpt>
      <trkpt lat="47.30851" lon="2.78971">
        <ele>259</ele>
        <time>2019-11-15T09:19:53Z</time>
      </trkpt>
      <trkpt lat="47.30886" lon="2.79051">
        <ele>251</ele>
        <time>2019-11-15T09:21:19Z</time>
      </trkpt>
      <trkpt lat="47.30911" lon="2.79089">
        <ele>246</ele>
        <time>2019-11-15T09:22:07Z</time>
      </trkpt>
      <trkpt lat="47.30934" lon="2.79164">
        <ele>239</ele>
        <time>2019-11-15T09:23:21Z</time>
      </trkpt>
      <trkpt lat="47.30927" lon="2.79214">
        <ele>237</ele>
        <time>2019-11-15T09:24:08Z</time>
      </trkpt>
      <trkpt lat="47.30969" lon="2.79246">
        <ele>236</ele>
        <time>2019-11-15T09:25:11Z</time>
      </trkpt>
      <trkpt lat="47.30997" lon="2.79261">
        <ele>238</ele>
        <time>2019-11-15T09:25:50Z</time>
      </trkpt>
      <trkpt lat="47.311" lon="2.79197">
        <ele>240</ele>
        <time>2019-11-15T09:28:20Z</time>
      </trkpt>
      <trkpt lat="47.31149" lon="2.79186">
        <ele>242</ele>
        <time>2019-11-15T09:29:26Z</time>
      </trkpt>
      <trkpt lat="47.31207" lon="2.79188">
        <ele>245</ele>
        <time>2019-11-15T09:30:43Z</time>
      </trkpt>
      <trkpt lat="47.31245" lon="2.79203">
        <ele>248</ele>
        <time>2019-11-15T09:31:36Z</time>
      </trkpt>
      <trkpt lat="47.31311" lon="2.79192">
        <ele>249</ele>
        <time>2019-11-15T09:33:04Z</time>
      </trkpt>
      <trkpt lat="47.31368" lon="2.79188">
        <ele>251</ele>
        <time>2019-11-15T09:34:20Z</time>
      </trkpt>
      <trkpt lat="47.31405" lon="2.79181">
        <ele>252</ele>
        <time>2019-11-15T09:35:10Z</time>
      </trkpt>
      <trkpt lat="47.31436" lon="2.79166">
        <ele>252</ele>
        <time>2019-11-15T09:35:54Z</time>
      </trkpt>
      <trkpt lat="47.31513" lon="2.79063">
        <ele>251</ele>
        <time>2019-11-15T09:38:12Z</time>
      </trkpt>
      <trkpt lat="47.31546" lon="2.7898">
        <ele>254</ele>
        <time>2019-11-15T09:39:40Z</time>
      </trkpt>
      <trkpt lat="47.3166" lon="2.78838">
        <ele>258</ele>
        <time>2019-11-15T09:42:59Z</time>
      </trkpt>
      <trkpt lat="47.32032" lon="2.78506">
        <ele>275</ele>
        <time>2019-11-15T09:52:39Z</time>
      </trkpt>
      <trkpt lat="47.32077" lon="2.78486">
        <ele>281</ele>
        <time>2019-11-15T09:53:42Z</time>
      </trkpt>
      <trkpt lat="47.32128" lon="2.78467">
        <ele>288</ele>
        <time>2019-11-15T09:54:52Z</time>
      </trkpt>
      <trkpt lat="47.32264" lon="2.78396">
        <ele>304</ele>
        <time>2019-11-15T09:58:04Z</time>
      </trkpt>
      <trkpt lat="47.32315" lon="2.78383">
        <ele>309</ele>
        <time>2019-11-15T09:59:13Z</time>
      </trkpt>
      <trkpt lat="47.32349" lon="2.78366">
        <ele>314</ele>
        <time>2019-11-15T10:00:01Z</time>
      </trkpt>
      <trkpt lat="47.32453" lon="2.78186">
        <ele>332</ele>
        <time>2019-11-15T10:03:35Z</time>
      </trkpt>
      <trkpt lat="47.32488" lon="2.78089">
        <ele>339</ele>
        <time>2019-11-15T10:05:15Z</time>
      </trkpt>
      <trkpt lat="47.32544" lon="2.77988">
        <ele>349</ele>
        <time>2019-11-15T10:07:13Z</time>
      </trkpt>
      <trkpt lat="47.32694" lon="2.77847">
        <ele>359</ele>
        <time>2019-11-15T10:11:10Z</time>
      </trkpt>
      <trkpt lat="47.32924" lon="2.78062">
        <ele>359</ele>
        <time>2019-11-15T10:17:13Z</time>
      </trkpt>
      <trkpt lat="47.32844" lon="2.7822">
        <ele>360</ele>
        <time>2019-11-15T10:20:12Z</time>
      </trkpt>
      <trkpt lat="47.32764" lon="2.78336">
        <ele>361</ele>
        <time>2019-11-15T10:22:41Z</time>
      </trkpt>
      <trkpt lat="47.32659" lon="2.78559">
        <ele>362</ele>
        <time>2019-11-15T10:26:47Z</time>
      </trkpt>
      <trkpt lat="47.32597" lon="2.78666">
        <ele>363</ele>
        <time>2019-11-15T10:28:54Z</time>
      </trkpt>
      <trkpt lat="47.32539" lon="2.78731">
        <ele>363</ele>
        <time>2019-11-15T10:30:32Z</time>
      </trkpt>
      <trkpt lat="47.32581" lon="2.78797">
        <ele>363</ele>
        <time>2019-11-15T10:31:53Z</time>
      </trkpt>
      <trkpt lat="47.32572" lon="2.78892">
        <ele>362</ele>
        <time>2019-11-15T10:33:20Z</time>
      </trkpt>
      <trkpt lat="47.3255" lon="2.79008">
        <ele>359</ele>
        <time>2019-11-15T10:35:09Z</time>
      </trkpt>
      <trkpt lat="47.32518" lon="2.79083">
        <ele>354</ele>
        <time>2019-11-15T10:36:29Z</time>
      </trkpt>
      <trkpt lat="47.32469" lon="2.79134">
        <ele>348</ele>
        <time>2019-11-15T10:37:49Z</time>
      </trkpt>
      <trkpt lat="47.32444" lon="2.79207">
        <ele>340</ele>
        <time>2019-11-15T10:39:03Z</time>
      </trkpt>
      <trkpt lat="47.32419" lon="2.79297">
        <ele>332</ele>
        <time>2019-11-15T10:40:31Z</time>
      </trkpt>
      <trkpt lat="47.32406" lon="2.79398">
        <ele>318</ele>
        <time>2019-11-15T10:42:04Z</time>
      </trkpt>
      <trkpt lat="47.32411" lon="2.79488">
        <ele>307</ele>
        <time>2019-11-15T10:43:26Z</time>
      </trkpt>
      <trkpt lat="47.32489" lon="2.79671">
        <ele>279</ele>
        <time>2019-11-15T10:46:41Z</time>
      </trkpt>
      <trkpt lat="47.32546" lon="2.7993">
        <ele>271</ele>
        <time>2019-11-15T10:50:48Z</time>
      </trkpt>
      <trkpt lat="47.32573" lon="2.80085">
        <ele>266</ele>
        <time>2019-11-15T10:53:13Z</time>
      </trkpt>
      <trkpt lat="47.3261" lon="2.80248">
        <ele>268</ele>
        <time>2019-11-15T10:55:48Z</time>
      </trkpt>
      <trkpt lat="47.32648" lon="2.80357">
        <ele>266</ele>
        <time>2019-11-15T10:57:39Z</time>
      </trkpt>
      <trkpt lat="47.3272" lon="2.80471">
        <ele>261</ele>
        <time>2019-11-15T11:00:00Z</time>
      </trkpt>
      <trkpt lat="47.32748" lon="2.80587">
        <ele>262</ele>
        <time>2019-11-15T11:01:51Z</time>
      </trkpt>
      <trkpt lat="47.32901" lon="2.80943">
        <ele>259</ele>
        <time>2019-11-15T11:08:13Z</time>
      </trkpt>
      <trkpt lat="47.32959" lon="2.81149">
        <ele>256</ele>
        <time>2019-11-15T11:11:34Z</time>
      </trkpt>
      <trkpt lat="47.33032" lon="2.81334">
        <ele>253</ele>
        <time>2019-11-15T11:14:48Z</time>
      </trkpt>
      <trkpt lat="47.33192" lon="2.81604">
        <ele>246</ele>
        <time>2019-11-15T11:20:12Z</time>
      </trkpt>
      <trkpt lat="47.33293" lon="2.81754">
        <ele>238</ele>
        <time>2019-11-15T11:23:24Z</time>
      </trkpt>
      <trkpt lat="47.33356" lon="2.81862">
        <ele>230</ele>
        <time>2019-11-15T11:25:32Z</time>
      </trkpt>
      <trkpt lat="47.33378" lon="2.81971">
        <ele>221</ele>
        <time>2019-11-15T11:27:15Z</time>
      </trkpt>
      <trkpt lat="47.3342" lon="2.82065">
        <ele>210</ele>
        <time>2019-11-15T11:28:57Z</time>
      </trkpt>
      <trkpt lat="47.335" lon="2.82153">
        <ele>192</ele>
        <time>2019-11-15T11:31:10Z</time>
      </trkpt>
      <trkpt lat="47.33475" lon="2.82261">
        <ele>187</ele>
        <time>2019-11-15T11:32:53Z</time>
      </trkpt>
      <trkpt lat="47.33405" lon="2.82364">
        <ele>183</ele>
        <time>2019-11-15T11:35:05Z</time>
      </trkpt>
      <trkpt lat="47.3332" lon="2.8248">
        <ele>179</ele>
        <time>2019-11-15T11:37:40Z</time>
      </trkpt>
      <trkpt lat="47.33237" lon="2.8261">
        <ele>177</ele>
        <time>2019-11-15T11:40:21Z</time>
      </trkpt>
      <trkpt lat="47.33126" lon="2.82816">
        <ele>191</ele>
        <time>2019-11-15T11:44:19Z</time>
      </trkpt>
      <trkpt lat="47.33106" lon="2.82922">
        <ele>199</ele>
        <time>2019-11-15T11:45:59Z</time>
      </trkpt>
      <trkpt lat="47.33084" lon="2.8299">
        <ele>204</ele>
        <time>2019-11-15T11:47:07Z</time>
      </trkpt>
    </trkseg>
  </trk>
</gpx>